createdAt,value
2018-04-25T00:00:30.107Z,51.20
2018-04-25T00:03:02.603Z,49.83
2018-04-25T00:05:35.204Z,57.80
2018-04-25T00:08:07.700Z,64.27
2018-04-25T00:10:40.280Z,54.63
2018-04-25T00:13:12.875Z,60.50
2018-04-25T00:15:45.399Z,55.53
2018-04-25T00:18:17.935Z,79.77
2018-04-25T00:20:50.448Z,54.33
2018-04-25T00:23:22.959Z,60.43
2018-04-25T00:25:55.471Z,64.30
2018-04-25T00:28:28.167Z,56.28
2018-04-25T00:31:00.755Z,61.10
2018-04-25T00:33:33.406Z,54.77
2018-04-25T00:36:05.915Z,62.03
2018-04-25T00:38:38.519Z,60.95
2018-04-25T00:41:11.100Z,59.67
2018-04-25T00:43:43.691Z,54.53
2018-04-25T00:46:16.200Z,55.33
2018-04-25T00:48:48.722Z,54.43
2018-04-25T00:51:21.219Z,53.60
2018-04-25T00:53:53.827Z,56.07
2018-04-25T00:56:26.406Z,67.53
2018-04-25T00:58:58.925Z,65.87
2018-04-25T01:01:31.662Z,57.07
2018-04-25T01:04:04.267Z,58.40
2018-04-25T01:06:36.770Z,54.30
2018-04-25T01:09:09.286Z,58.80
2018-04-25T01:11:41.799Z,60.17
2018-04-25T01:14:14.422Z,66.80
2018-04-25T01:16:46.916Z,56.57
2018-04-25T01:19:19.476Z,59.57
2018-04-25T01:21:51.963Z,67.03
2018-04-25T01:24:24.484Z,57.30
2018-04-25T01:27:03.702Z,64.05
2018-04-25T01:29:43.447Z,57.83
2018-04-25T01:32:16.047Z,61.80
2018-04-25T01:34:58.008Z,67.70
2018-04-25T01:37:35.531Z,64.63
2018-04-25T01:40:09.439Z,56.23
2018-04-25T01:42:43.558Z,70.70
2018-04-25T01:45:23.984Z,66.55
2018-04-25T01:48:00.070Z,58.10
2018-04-25T01:50:37.352Z,59.60
2018-04-25T01:53:21.739Z,63.38
2018-04-25T01:56:05.998Z,61.72
2018-04-25T01:58:50.427Z,60.95
2018-04-25T02:01:22.505Z,57.13
2018-04-25T02:03:55.940Z,58.97
2018-04-25T02:06:28.461Z,67.80
2018-04-25T02:09:00.959Z,61.93
2018-04-25T02:11:34.227Z,67.77
2018-04-25T02:14:06.726Z,55.67
2018-04-25T02:16:39.238Z,55.80
2018-04-25T02:19:11.747Z,51.90
2018-04-25T02:21:44.280Z,56.42
2018-04-25T02:24:16.789Z,48.10
2018-04-25T02:26:49.304Z,52.53
2018-04-25T02:29:21.867Z,47.13
2018-04-25T02:31:54.406Z,46.88
2018-04-25T02:34:26.924Z,50.05
2018-04-25T02:36:59.452Z,45.42
2018-04-25T02:39:32.454Z,53.97
2018-04-25T02:42:04.993Z,50.72
2018-04-25T02:44:37.595Z,56.05
2018-04-25T02:47:10.169Z,58.43
2018-04-25T02:49:42.754Z,57.58
2018-04-25T02:52:15.274Z,55.30
2018-04-25T02:54:48.230Z,59.70
2018-04-25T02:57:20.813Z,58.25
2018-04-25T02:59:53.312Z,61.13
2018-04-25T03:02:25.836Z,56.55
2018-04-25T03:04:58.332Z,60.30
2018-04-25T03:07:30.965Z,53.53
2018-04-25T03:10:04.212Z,66.12
2018-04-25T03:12:36.731Z,60.90
2018-04-25T03:15:09.225Z,58.78
2018-04-25T03:17:41.740Z,64.05
2018-04-25T03:20:14.235Z,60.08
2018-04-25T03:22:46.751Z,69.82
2018-04-25T03:25:19.244Z,89.82
2018-04-25T03:27:51.755Z,69.12
2018-04-25T03:30:24.256Z,72.97
2018-04-25T03:32:56.808Z,88.15
2018-04-25T03:35:29.303Z,151.25
2018-04-25T03:38:02.770Z,98.05
2018-04-25T03:40:35.290Z,137.52
2018-04-25T03:43:07.876Z,121.43
2018-04-25T03:45:40.375Z,202.20
2018-04-25T03:48:12.895Z,168.70
2018-04-25T03:50:45.395Z,137.10
2018-04-25T03:53:18.003Z,171.30
2018-04-25T03:55:50.532Z,158.80
2018-04-25T03:58:23.025Z,138.00
2018-04-25T04:00:55.544Z,182.27
2018-04-25T04:03:28.146Z,143.23
2018-04-25T04:06:00.686Z,129.00
2018-04-25T04:08:34.031Z,124.35
2018-04-25T04:11:06.615Z,140.37
2018-04-25T04:13:39.143Z,199.57
2018-04-25T04:16:11.693Z,191.50
2018-04-25T04:18:44.287Z,116.03
2018-04-25T04:21:16.863Z,190.60
2018-04-25T04:23:50.476Z,230.55
2018-04-25T04:26:23.059Z,142.35
2018-04-25T04:28:55.567Z,142.45
2018-04-25T04:31:28.093Z,135.40
2018-04-25T04:34:00.708Z,124.22
2018-04-25T04:39:13.350Z,106.90
2018-04-25T04:41:45.875Z,125.38
2018-04-25T04:44:18.374Z,152.40
2018-04-25T04:46:50.900Z,136.85
2018-04-25T04:49:23.553Z,116.25
2018-04-25T04:51:56.047Z,115.37
2018-04-25T04:54:28.563Z,103.50
2018-04-25T04:57:01.089Z,158.52
2018-04-25T04:59:34.574Z,147.18
2018-04-25T05:02:07.147Z,84.30
2018-04-25T05:04:39.727Z,139.73
2018-04-25T05:07:12.243Z,109.57
2018-04-25T05:09:44.738Z,109.00
2018-04-25T05:12:17.285Z,85.43
2018-04-25T05:14:49.780Z,89.87
2018-04-25T05:17:22.354Z,89.85
2018-04-25T05:19:54.844Z,75.37
2018-04-25T05:22:27.428Z,81.93
2018-04-25T05:24:59.981Z,78.00
2018-04-25T05:27:32.840Z,99.03
2018-04-25T05:30:05.344Z,64.22
2018-04-25T05:32:37.861Z,66.47
2018-04-25T05:35:10.353Z,80.25
2018-04-25T05:37:42.947Z,49.35
2018-04-25T05:40:15.533Z,58.22
2018-04-25T05:42:48.115Z,39.22
2018-04-25T05:45:20.609Z,47.83
2018-04-25T05:47:53.120Z,34.85
2018-04-25T05:50:25.624Z,48.15
2018-04-25T05:52:58.146Z,50.53
2018-04-25T05:55:30.772Z,42.40
2018-04-25T05:58:04.047Z,39.47
2018-04-25T06:00:36.547Z,39.08
2018-04-25T06:03:09.068Z,35.92
2018-04-25T06:05:41.564Z,37.40
2018-04-25T06:08:14.075Z,29.37
2018-04-25T06:10:46.567Z,33.22
2018-04-25T06:13:19.086Z,29.87
2018-04-25T06:15:51.590Z,26.40
2018-04-25T06:18:24.103Z,20.98
2018-04-25T06:20:56.691Z,21.37
2018-04-25T06:23:29.218Z,19.58
2018-04-25T06:26:01.787Z,15.38
2018-04-25T06:28:34.300Z,17.55
2018-04-25T06:31:06.795Z,15.32
2018-04-25T06:33:39.318Z,14.55
2018-04-25T06:36:11.818Z,16.55
2018-04-25T06:38:44.344Z,13.98
2018-04-25T06:41:16.840Z,14.90
2018-04-25T06:43:49.606Z,15.00
2018-04-25T06:46:22.199Z,15.20
2018-04-25T06:48:54.732Z,14.60
2018-04-25T06:51:27.315Z,15.55
2018-04-25T06:53:59.835Z,14.32
2018-04-25T06:56:32.690Z,13.95
2018-04-25T06:59:05.202Z,11.55
2018-04-25T07:01:37.706Z,13.32
2018-04-25T07:04:10.254Z,12.13
2018-04-25T07:06:42.835Z,11.73
2018-04-25T07:09:15.417Z,10.38
2018-04-25T07:11:48.012Z,11.27
2018-04-25T07:14:20.532Z,10.40
2018-04-25T07:16:53.070Z,10.18
2018-04-25T07:19:25.588Z,9.77
2018-04-25T07:21:58.103Z,8.50
2018-04-25T07:24:30.627Z,9.13
2018-04-25T07:27:03.894Z,7.90
2018-04-25T07:29:36.477Z,9.43
2018-04-25T07:32:09.006Z,6.47
2018-04-25T07:34:41.493Z,5.85
2018-04-25T07:37:14.091Z,5.30
2018-04-25T07:39:46.663Z,5.22
2018-04-25T07:42:19.174Z,5.90
2018-04-25T07:44:51.666Z,4.95
2018-04-25T07:47:24.181Z,3.60
2018-04-25T07:49:56.668Z,3.87
2018-04-25T07:52:29.209Z,3.90
2018-04-25T07:55:01.816Z,4.12
2018-04-25T07:57:34.359Z,4.55
2018-04-25T08:00:06.940Z,3.10
2018-04-25T08:02:39.524Z,3.60
2018-04-25T08:05:12.015Z,3.92
2018-04-25T08:07:44.613Z,3.00
2018-04-25T08:10:17.108Z,4.10
2018-04-25T08:13:01.744Z,3.05
2018-04-25T08:15:46.012Z,3.12
2018-04-25T08:18:30.376Z,3.08
2018-04-25T08:24:07.907Z,3.28
2018-04-25T08:26:40.397Z,4.85
2018-04-25T08:29:12.904Z,2.08
2018-04-25T08:31:45.401Z,1.90
2018-04-25T08:34:17.975Z,3.55
2018-04-25T08:36:50.447Z,5.07
2018-04-25T08:39:22.960Z,1.60
2018-04-25T08:41:56.063Z,1.50
2018-04-25T08:44:28.691Z,1.90
2018-04-25T08:47:03.020Z,4.68
2018-04-25T08:49:35.526Z,3.67
2018-04-25T08:52:08.031Z,1.83
2018-04-25T08:54:40.571Z,1.83
2018-04-25T08:57:13.057Z,3.62
2018-04-25T08:59:45.570Z,4.32
2018-04-25T09:02:18.064Z,3.17
2018-04-25T09:04:50.605Z,4.93
2018-04-25T09:07:23.091Z,3.95
2018-04-25T09:09:55.607Z,6.70
2018-04-25T09:12:28.107Z,4.60
2018-04-25T09:15:00.615Z,2.33
2018-04-25T09:17:33.950Z,2.60
2018-04-25T09:20:06.462Z,17.90
2018-04-25T09:22:39.020Z,5.10
2018-04-25T09:25:11.605Z,5.43
2018-04-25T09:27:44.090Z,3.20
2018-04-25T09:30:16.599Z,9.20
2018-04-25T09:32:49.150Z,3.03
2018-04-25T09:35:21.656Z,3.28
2018-04-25T09:37:54.144Z,3.83
2018-04-25T09:40:26.703Z,5.12
2018-04-25T09:42:59.287Z,1.50
2018-04-25T09:45:31.789Z,2.22
2018-04-25T09:48:04.367Z,11.60
2018-04-25T09:50:36.891Z,10.50
2018-04-25T09:53:09.383Z,11.27
2018-04-25T09:55:41.904Z,4.72
2018-04-25T09:58:14.386Z,4.60
2018-04-25T10:00:52.437Z,4.43
2018-04-25T10:03:25.928Z,13.57
2018-04-25T10:05:58.446Z,17.65
2018-04-25T10:08:30.997Z,6.95
2018-04-25T10:11:04.255Z,3.85
2018-04-25T10:13:36.779Z,6.55
2018-04-25T10:16:09.368Z,16.77
2018-04-25T10:18:41.881Z,25.33
2018-04-25T10:21:14.446Z,12.93
2018-04-25T10:23:46.958Z,7.97
2018-04-25T10:26:19.463Z,2.70
2018-04-25T10:28:51.991Z,12.70
2018-04-25T10:31:24.481Z,9.55
2018-04-25T10:33:56.992Z,8.07
2018-04-25T10:36:29.476Z,11.07
2018-04-25T10:39:02.644Z,6.60
2018-04-25T10:41:35.135Z,8.32
2018-04-25T10:44:08.019Z,6.60
2018-04-25T10:46:40.498Z,12.40
2018-04-25T10:49:13.011Z,14.38
2018-04-25T10:51:45.503Z,8.27
2018-04-25T10:54:18.012Z,5.97
2018-04-25T10:56:50.530Z,7.32
2018-04-25T10:59:23.038Z,2.78
2018-04-25T11:01:55.518Z,5.10
2018-04-25T11:04:28.142Z,5.30
2018-04-25T11:07:00.595Z,4.97
2018-04-25T11:09:33.919Z,10.23
2018-04-25T11:12:06.471Z,3.92
2018-04-25T11:14:38.982Z,4.85
2018-04-25T11:17:11.467Z,6.78
2018-04-25T11:19:43.971Z,3.58
2018-04-25T11:22:16.458Z,3.97
2018-04-25T11:24:48.964Z,2.67
2018-04-25T11:27:21.500Z,4.57
2018-04-25T11:29:53.978Z,2.87
2018-04-25T11:32:26.550Z,2.25
2018-04-25T11:34:59.059Z,5.90
2018-04-25T11:37:31.612Z,1.50
2018-04-25T11:40:04.128Z,1.73
2018-04-25T11:42:36.620Z,4.00
2018-04-25T11:45:09.133Z,3.10
2018-04-25T11:47:41.616Z,1.45
2018-04-25T11:50:14.124Z,3.30
2018-04-25T11:52:46.615Z,1.15
2018-04-25T11:55:19.205Z,2.08
2018-04-25T11:57:51.694Z,1.62
2018-04-25T12:00:24.199Z,6.45
2018-04-25T12:02:56.771Z,2.75
2018-04-25T12:05:29.208Z,3.10
2018-04-25T12:08:01.852Z,3.70
2018-04-25T12:10:34.519Z,2.33
2018-04-25T12:13:07.051Z,3.72
2018-04-25T12:15:39.636Z,2.33
2018-04-25T12:18:12.182Z,2.20
2018-04-25T12:20:44.688Z,5.97
2018-04-25T12:23:17.246Z,2.50
2018-04-25T12:25:49.760Z,2.33
2018-04-25T12:28:22.253Z,2.95
2018-04-25T12:30:54.767Z,1.85
2018-04-25T12:33:27.292Z,2.15
2018-04-25T12:35:59.863Z,2.30
2018-04-25T12:38:32.599Z,2.35
2018-04-25T12:41:05.119Z,1.55
2018-04-25T12:43:37.631Z,1.83
2018-04-25T12:46:10.144Z,1.70
2018-04-25T12:48:42.705Z,2.47
2018-04-25T12:51:15.224Z,2.03
2018-04-25T12:53:47.720Z,2.58
2018-04-25T12:56:20.227Z,1.42
2018-04-25T12:58:52.724Z,2.00
2018-04-25T13:01:25.232Z,2.08
2018-04-25T13:03:57.732Z,3.35
2018-04-25T13:06:30.236Z,3.30
2018-04-25T13:09:02.740Z,2.50
2018-04-25T13:11:35.259Z,3.58
2018-04-25T13:14:07.760Z,2.30
2018-04-25T13:16:40.315Z,1.55
2018-04-25T13:19:12.905Z,1.40
2018-04-25T13:21:45.490Z,1.60
2018-04-25T13:24:17.979Z,2.90
2018-04-25T13:26:50.503Z,3.50
2018-04-25T13:29:22.992Z,2.47
2018-04-25T13:31:56.085Z,1.52
2018-04-25T13:34:28.574Z,1.98
2018-04-25T13:37:01.111Z,1.95
2018-04-25T13:39:34.827Z,1.95
2018-04-25T13:42:07.343Z,2.47
2018-04-25T13:44:39.839Z,1.30
2018-04-25T13:47:12.372Z,3.30
2018-04-25T13:49:44.871Z,2.58
2018-04-25T13:52:17.387Z,0.93
2018-04-25T13:54:49.923Z,1.55
2018-04-25T13:57:22.434Z,1.30
2018-04-25T13:59:54.975Z,1.40
2018-04-25T14:02:27.574Z,1.58
2018-04-25T14:05:00.163Z,2.72
2018-04-25T14:07:32.657Z,1.40
2018-04-25T14:10:05.174Z,0.98
2018-04-25T14:12:37.674Z,2.45
2018-04-25T14:15:10.199Z,1.92
2018-04-25T14:17:42.701Z,3.90
2018-04-25T14:20:15.213Z,2.87
2018-04-25T14:22:47.723Z,1.85
2018-04-25T14:25:20.344Z,1.25
2018-04-25T14:27:52.844Z,1.27
2018-04-25T14:30:25.404Z,2.35
2018-04-25T14:32:57.857Z,3.33
2018-04-25T14:35:30.414Z,1.70
2018-04-25T14:38:03.825Z,4.25
2018-04-25T14:40:36.360Z,1.40
2018-04-25T14:43:08.863Z,1.95
2018-04-25T14:45:41.373Z,1.10
2018-04-25T14:48:13.878Z,2.05
2018-04-25T14:50:46.494Z,1.20
2018-04-25T14:53:19.076Z,2.65
2018-04-25T14:55:51.592Z,1.95
2018-04-25T14:58:24.091Z,1.25
2018-04-25T15:00:56.639Z,1.35
2018-04-25T15:03:29.150Z,0.88
2018-04-25T15:06:01.728Z,0.80
2018-04-25T15:08:34.214Z,1.20
2018-04-25T15:11:06.731Z,0.85
2018-04-25T15:13:39.488Z,0.95
2018-04-25T15:16:12.268Z,1.73
2018-04-25T15:18:44.787Z,1.00
2018-04-25T15:21:17.294Z,1.20
2018-04-25T15:23:49.793Z,2.72
2018-04-25T15:26:22.611Z,1.00
2018-04-25T15:28:55.287Z,1.27
2018-04-25T15:31:27.885Z,0.90
2018-04-25T15:34:00.458Z,2.03
2018-04-25T15:36:33.770Z,1.23
2018-04-25T15:39:06.278Z,0.70
2018-04-25T15:41:38.795Z,0.73
2018-04-25T15:44:11.310Z,1.00
2018-04-25T15:46:43.938Z,1.52
2018-04-25T15:49:16.483Z,0.77
2018-04-25T15:51:48.996Z,1.23
2018-04-25T15:54:21.554Z,1.10
2018-04-25T15:56:54.073Z,0.90
2018-04-25T15:59:26.572Z,0.98
2018-04-25T16:01:59.093Z,0.90
2018-04-25T16:04:31.705Z,1.20
2018-04-25T16:07:04.229Z,1.17
2018-04-25T16:09:36.738Z,1.08
2018-04-25T16:12:09.359Z,1.27
2018-04-25T16:14:41.818Z,0.90
2018-04-25T16:17:14.328Z,1.12
2018-04-25T16:19:46.902Z,1.12
2018-04-25T16:22:19.442Z,0.80
2018-04-25T16:24:51.955Z,1.65
2018-04-25T16:27:24.467Z,1.20
2018-04-25T16:29:56.964Z,1.40
2018-04-25T16:32:29.471Z,1.57
2018-04-25T16:35:02.574Z,1.65
2018-04-25T16:37:35.088Z,1.50
2018-04-25T16:40:07.582Z,2.03
2018-04-25T16:42:40.104Z,1.37
2018-04-25T16:45:12.657Z,2.03
2018-04-25T16:47:45.230Z,1.90
2018-04-25T16:50:17.723Z,2.28
2018-04-25T16:52:50.231Z,2.37
2018-04-25T16:55:22.875Z,1.98
2018-04-25T16:57:55.470Z,2.53
2018-04-25T17:00:28.181Z,3.08
2018-04-25T17:03:00.862Z,2.50
2018-04-25T17:05:34.007Z,2.83
2018-04-25T17:08:06.538Z,2.97
2018-04-25T17:10:39.074Z,3.77
2018-04-25T17:13:11.604Z,3.43
2018-04-25T17:15:44.207Z,4.23
2018-04-25T17:18:16.743Z,2.60
2018-04-25T17:20:49.231Z,2.72
2018-04-25T17:23:21.844Z,2.50
2018-04-25T17:25:54.335Z,2.20
2018-04-25T17:28:26.927Z,3.50
2018-04-25T17:30:59.428Z,2.83
2018-04-25T17:33:33.313Z,2.40
2018-04-25T17:36:05.888Z,2.80
2018-04-25T17:38:38.392Z,2.47
2018-04-25T17:41:10.919Z,2.60
2018-04-25T17:43:43.444Z,2.35
2018-04-25T17:46:15.947Z,3.72
2018-04-25T17:48:48.450Z,2.55
2018-04-25T17:51:21.261Z,2.30
2018-04-25T17:53:53.816Z,2.90
2018-04-25T17:56:26.379Z,2.95
2018-04-25T17:58:58.865Z,2.80
2018-04-25T18:01:31.610Z,3.00
2018-04-25T18:04:04.151Z,3.60
2018-04-25T18:06:36.672Z,3.13
2018-04-25T18:09:09.198Z,2.67
2018-04-25T18:11:41.710Z,3.13
2018-04-25T18:14:14.294Z,3.63
2018-04-25T18:16:46.836Z,3.77
2018-04-25T18:19:19.345Z,4.40
2018-04-25T18:21:51.872Z,4.57
2018-04-25T18:24:24.366Z,4.17
2018-04-25T18:26:56.987Z,4.20
2018-04-25T18:29:29.480Z,4.40
2018-04-25T18:32:02.538Z,3.27
2018-04-25T18:34:35.059Z,3.63
2018-04-25T18:37:07.747Z,3.83
2018-04-25T18:39:40.327Z,4.23
2018-04-25T18:42:12.915Z,4.10
2018-04-25T18:44:45.502Z,4.80
2018-04-25T18:47:18.015Z,3.60
2018-04-25T18:49:50.567Z,2.90
2018-04-25T18:52:23.091Z,3.50
2018-04-25T18:54:55.599Z,3.50
2018-04-25T18:57:28.125Z,3.03
2018-04-25T19:00:00.711Z,2.77
2018-04-25T19:02:34.023Z,2.70
2018-04-25T19:05:06.606Z,4.50
2018-04-25T19:07:39.119Z,2.90
2018-04-25T19:10:11.608Z,2.87
2018-04-25T19:12:44.154Z,3.23
2018-04-25T19:15:16.681Z,2.83
2018-04-25T19:17:49.235Z,3.30
2018-04-25T19:20:21.747Z,3.53
2018-04-25T19:22:54.255Z,3.00
2018-04-25T19:25:26.778Z,3.30
2018-04-25T19:27:59.362Z,2.70
2018-04-25T19:30:32.464Z,2.60
2018-04-25T19:33:05.037Z,1.90
2018-04-25T19:35:37.515Z,2.50
2018-04-25T19:38:10.033Z,2.07
2018-04-25T19:40:42.529Z,1.97
2018-04-25T19:43:15.097Z,1.80
2018-04-25T19:45:47.592Z,2.63
2018-04-25T19:48:20.099Z,2.90
2018-04-25T19:50:52.628Z,1.90
2018-04-25T19:53:25.144Z,1.63
2018-04-25T19:55:57.640Z,2.40
2018-04-25T19:58:30.148Z,1.70
2018-04-25T20:01:02.667Z,1.93
2018-04-25T20:03:35.189Z,1.77
2018-04-25T20:06:07.740Z,2.23
2018-04-25T20:08:40.318Z,1.87
2018-04-25T20:11:12.808Z,2.03
2018-04-25T20:13:45.399Z,1.70
2018-04-25T20:16:17.900Z,3.13
2018-04-25T20:18:50.460Z,1.30
2018-04-25T20:21:22.957Z,2.27
2018-04-25T20:23:55.535Z,1.53
2018-04-25T20:26:28.034Z,1.50
2018-04-25T20:29:00.596Z,1.27
2018-04-25T20:31:33.813Z,2.00
2018-04-25T20:34:06.325Z,1.50
2018-04-25T20:36:38.875Z,1.60
2018-04-25T20:39:11.391Z,1.77
2018-04-25T20:41:43.875Z,1.53
2018-04-25T20:44:16.399Z,1.87
2018-04-25T20:46:48.901Z,2.10
2018-04-25T20:49:21.415Z,4.00
2018-04-25T20:51:53.967Z,1.73
2018-04-25T20:54:26.493Z,1.83
2018-04-25T20:56:59.021Z,1.50
2018-04-25T20:59:31.661Z,1.87
2018-04-25T21:02:04.151Z,1.60
2018-04-25T21:04:36.665Z,1.97
2018-04-25T21:07:09.185Z,1.80
2018-04-25T21:09:41.679Z,1.90
2018-04-25T21:12:14.190Z,1.80
2018-04-25T21:14:46.679Z,2.57
2018-04-25T21:17:19.272Z,1.87
2018-04-25T21:19:51.702Z,1.60
2018-04-25T21:22:24.290Z,2.27
2018-04-25T21:24:56.806Z,1.60
2018-04-25T21:27:29.314Z,2.23
2018-04-25T21:30:02.063Z,2.10
2018-04-25T21:32:34.631Z,1.53
2018-04-25T21:35:07.123Z,2.30
2018-04-25T21:37:39.695Z,1.43
2018-04-25T21:40:12.187Z,1.60
2018-04-25T21:42:44.700Z,1.67
2018-04-25T21:45:17.260Z,2.30
2018-04-25T21:47:49.848Z,2.10
2018-04-25T21:50:22.360Z,3.07
2018-04-25T21:52:54.904Z,2.00
2018-04-25T21:55:27.390Z,2.27
2018-04-25T21:57:59.952Z,3.47
2018-04-25T22:00:32.745Z,2.70
2018-04-25T22:03:05.354Z,3.00
2018-04-25T22:05:37.855Z,2.67
2018-04-25T22:08:10.363Z,3.07
2018-04-25T22:10:42.855Z,3.10
2018-04-25T22:13:15.374Z,3.10
2018-04-25T22:15:47.865Z,3.60
2018-04-25T22:18:20.424Z,3.83
2018-04-25T22:20:52.915Z,5.07
2018-04-25T22:23:25.428Z,4.03
2018-04-25T22:25:57.920Z,3.40
2018-04-25T22:28:30.438Z,3.97
2018-04-25T22:31:03.699Z,3.50
2018-04-25T22:33:36.249Z,3.40
2018-04-25T22:36:08.737Z,4.43
2018-04-25T22:38:41.255Z,4.33
2018-04-25T22:41:13.892Z,3.83
2018-04-25T22:43:46.434Z,3.70
2018-04-25T22:46:19.017Z,3.90
2018-04-25T22:48:51.586Z,3.87
2018-04-25T22:51:24.033Z,4.20
2018-04-25T22:53:56.575Z,3.90
2018-04-25T22:56:29.069Z,3.93
2018-04-25T22:59:01.662Z,4.73
2018-04-25T23:01:34.248Z,3.83
2018-04-25T23:04:06.824Z,3.50
2018-04-25T23:06:39.316Z,3.63
2018-04-25T23:09:11.830Z,3.90
2018-04-25T23:11:44.319Z,4.23
2018-04-25T23:14:16.847Z,3.63
2018-04-25T23:16:49.435Z,3.73
2018-04-25T23:19:21.958Z,3.73
2018-04-25T23:21:54.577Z,4.00
2018-04-25T23:24:27.105Z,3.63
2018-04-25T23:26:59.593Z,4.37
2018-04-25T23:29:32.991Z,4.73
2018-04-25T23:32:05.491Z,3.83
2018-04-25T23:34:37.994Z,3.47
2018-04-25T23:37:10.479Z,4.47
2018-04-25T23:39:42.991Z,4.70
2018-04-25T23:42:15.479Z,3.90
2018-04-25T23:44:47.998Z,4.20
2018-04-25T23:47:20.549Z,4.30
2018-04-25T23:49:53.060Z,5.20
2018-04-25T23:52:25.547Z,4.57
2018-04-25T23:54:58.087Z,4.83
2018-04-25T23:57:30.579Z,5.87
